sensor_id;sensor_type;location;lat;lon;timestamp;P1;durP1;ratioP1;P2;durP2;ratioP2
60610;SDS011;46439;51.164;13.572;2022-11-21T00:01:16;24.40;;;13.90;;
60610;SDS011;46439;51.164;13.572;2022-11-21T00:03:47;28.20;;;14.70;;
60610;SDS011;46439;51.164;13.572;2022-11-21T00:06:16;28.80;;;14.60;;
60610;SDS011;46439;51.164;13.572;2022-11-21T00:08:46;27.70;;;14.70;;
60610;SDS011;46439;51.164;13.572;2022-11-21T00:11:15;28.60;;;14.00;;
60610;SDS011;46439;51.164;13.572;2022-11-21T00:13:44;31.90;;;14.40;;
60610;SDS011;46439;51.164;13.572;2022-11-21T00:16:13;28.50;;;14.10;;
60610;SDS011;46439;51.164;13.572;2022-11-21T00:18:56;32.70;;;15.00;;
60610;SDS011;46439;51.164;13.572;2022-11-21T00:21:25;31.20;;;14.90;;
60610;SDS011;46439;51.164;13.572;2022-11-21T00:24:14;32.00;;;16.00;;
60610;SDS011;46439;51.164;13.572;2022-11-21T00:26:42;33.20;;;15.70;;
60610;SDS011;46439;51.164;13.572;2022-11-21T00:29:11;33.40;;;15.20;;
60610;SDS011;46439;51.164;13.572;2022-11-21T00:31:39;32.00;;;16.10;;
60610;SDS011;46439;51.164;13.572;2022-11-21T00:34:26;35.90;;;17.10;;
60610;SDS011;46439;51.164;13.572;2022-11-21T00:36:55;32.80;;;16.80;;
60610;SDS011;46439;51.164;13.572;2022-11-21T00:39:24;31.30;;;15.90;;
60610;SDS011;46439;51.164;13.572;2022-11-21T00:41:52;31.30;;;16.20;;
60610;SDS011;46439;51.164;13.572;2022-11-21T00:44:21;33.00;;;16.40;;
60610;SDS011;46439;51.164;13.572;2022-11-21T00:46:49;36.90;;;17.10;;
60610;SDS011;46439;51.164;13.572;2022-11-21T00:49:18;35.40;;;16.10;;
60610;SDS011;46439;51.164;13.572;2022-11-21T00:51:46;38.40;;;17.00;;
60610;SDS011;46439;51.164;13.572;2022-11-21T00:54:14;34.50;;;17.00;;
60610;SDS011;46439;51.164;13.572;2022-11-21T00:56:43;34.80;;;17.50;;
60610;SDS011;46439;51.164;13.572;2022-11-21T00:59:11;38.50;;;18.60;;
60610;SDS011;46439;51.164;13.572;2022-11-21T01:01:40;39.40;;;18.50;;
60610;SDS011;46439;51.164;13.572;2022-11-21T01:04:08;37.10;;;18.30;;
60610;SDS011;46439;51.164;13.572;2022-11-21T01:06:37;36.20;;;17.90;;
60610;SDS011;46439;51.164;13.572;2022-11-21T01:09:06;35.10;;;17.20;;
60610;SDS011;46439;51.164;13.572;2022-11-21T01:11:34;39.30;;;18.40;;
60610;SDS011;46439;51.164;13.572;2022-11-21T01:14:03;37.00;;;17.60;;
60610;SDS011;46439;51.164;13.572;2022-11-21T01:16:31;41.00;;;18.70;;
60610;SDS011;46439;51.164;13.572;2022-11-21T01:19:00;38.40;;;17.60;;
60610;SDS011;46439;51.164;13.572;2022-11-21T01:21:29;34.80;;;17.50;;
60610;SDS011;46439;51.164;13.572;2022-11-21T01:23:59;35.20;;;17.40;;
60610;SDS011;46439;51.164;13.572;2022-11-21T01:26:28;41.10;;;18.60;;
60610;SDS011;46439;51.164;13.572;2022-11-21T01:29:01;41.30;;;18.90;;
60610;SDS011;46439;51.164;13.572;2022-11-21T01:31:29;37.70;;;18.90;;
60610;SDS011;46439;51.164;13.572;2022-11-21T01:33:58;39.10;;;18.10;;
60610;SDS011;46439;51.164;13.572;2022-11-21T01:36:28;42.40;;;19.10;;
60610;SDS011;46439;51.164;13.572;2022-11-21T01:38:58;40.40;;;18.70;;
60610;SDS011;46439;51.164;13.572;2022-11-21T01:41:28;41.00;;;20.10;;
60610;SDS011;46439;51.164;13.572;2022-11-21T01:43:59;37.70;;;19.50;;
60610;SDS011;46439;51.164;13.572;2022-11-21T01:46:28;43.80;;;20.40;;
60610;SDS011;46439;51.164;13.572;2022-11-21T01:48:57;36.20;;;17.80;;
60610;SDS011;46439;51.164;13.572;2022-11-21T01:51:30;41.80;;;19.90;;
60610;SDS011;46439;51.164;13.572;2022-11-21T01:54:04;42.50;;;19.70;;
60610;SDS011;46439;51.164;13.572;2022-11-21T01:56:39;40.00;;;18.30;;
60610;SDS011;46439;51.164;13.572;2022-11-21T01:59:12;43.50;;;20.00;;
60610;SDS011;46439;51.164;13.572;2022-11-21T02:01:46;39.60;;;19.10;;
60610;SDS011;46439;51.164;13.572;2022-11-21T02:04:17;39.20;;;18.90;;
60610;SDS011;46439;51.164;13.572;2022-11-21T02:06:48;38.20;;;18.50;;
60610;SDS011;46439;51.164;13.572;2022-11-21T02:09:16;40.50;;;20.40;;
60610;SDS011;46439;51.164;13.572;2022-11-21T02:11:46;37.70;;;19.30;;
60610;SDS011;46439;51.164;13.572;2022-11-21T02:14:18;39.10;;;19.00;;
60610;SDS011;46439;51.164;13.572;2022-11-21T02:16:46;41.10;;;19.90;;
60610;SDS011;46439;51.164;13.572;2022-11-21T02:19:18;37.00;;;18.50;;
60610;SDS011;46439;51.164;13.572;2022-11-21T02:21:57;38.90;;;18.00;;
60610;SDS011;46439;51.164;13.572;2022-11-21T02:24:33;39.60;;;17.90;;
60610;SDS011;46439;51.164;13.572;2022-11-21T02:27:08;36.50;;;18.20;;
60610;SDS011;46439;51.164;13.572;2022-11-21T02:29:37;37.00;;;17.50;;
60610;SDS011;46439;51.164;13.572;2022-11-21T02:32:06;38.20;;;18.30;;
60610;SDS011;46439;51.164;13.572;2022-11-21T02:34:35;38.40;;;18.40;;
60610;SDS011;46439;51.164;13.572;2022-11-21T02:37:03;41.00;;;19.40;;
60610;SDS011;46439;51.164;13.572;2022-11-21T02:39:34;35.20;;;17.10;;
60610;SDS011;46439;51.164;13.572;2022-11-21T02:42:05;38.10;;;17.40;;
60610;SDS011;46439;51.164;13.572;2022-11-21T02:44:42;35.80;;;17.40;;
60610;SDS011;46439;51.164;13.572;2022-11-21T02:47:17;37.30;;;18.00;;
60610;SDS011;46439;51.164;13.572;2022-11-21T02:49:48;34.20;;;17.30;;
60610;SDS011;46439;51.164;13.572;2022-11-21T02:52:22;33.90;;;16.10;;
60610;SDS011;46439;51.164;13.572;2022-11-21T02:54:50;34.70;;;16.40;;
60610;SDS011;46439;51.164;13.572;2022-11-21T02:57:19;33.30;;;15.80;;
60610;SDS011;46439;51.164;13.572;2022-11-21T02:59:47;33.20;;;16.50;;
60610;SDS011;46439;51.164;13.572;2022-11-21T03:02:16;32.10;;;15.40;;
60610;SDS011;46439;51.164;13.572;2022-11-21T03:04:44;32.60;;;16.20;;
60610;SDS011;46439;51.164;13.572;2022-11-21T03:07:13;28.20;;;14.00;;
60610;SDS011;46439;51.164;13.572;2022-11-21T03:09:41;22.60;;;11.80;;
60610;SDS011;46439;51.164;13.572;2022-11-21T03:12:10;29.50;;;14.00;;
60610;SDS011;46439;51.164;13.572;2022-11-21T03:14:38;27.20;;;13.60;;
60610;SDS011;46439;51.164;13.572;2022-11-21T03:17:07;23.60;;;12.10;;
60610;SDS011;46439;51.164;13.572;2022-11-21T03:19:36;28.00;;;12.90;;
60610;SDS011;46439;51.164;13.572;2022-11-21T03:22:04;27.40;;;12.60;;
60610;SDS011;46439;51.164;13.572;2022-11-21T03:24:33;25.40;;;12.90;;
60610;SDS011;46439;51.164;13.572;2022-11-21T03:27:01;25.20;;;12.50;;
60610;SDS011;46439;51.164;13.572;2022-11-21T03:29:30;25.90;;;13.40;;
60610;SDS011;46439;51.164;13.572;2022-11-21T03:31:58;32.00;;;13.90;;
60610;SDS011;46439;51.164;13.572;2022-11-21T03:34:27;24.50;;;12.90;;
60610;SDS011;46439;51.164;13.572;2022-11-21T03:36:55;30.40;;;14.90;;
60610;SDS011;46439;51.164;13.572;2022-11-21T03:39:23;26.60;;;13.20;;
60610;SDS011;46439;51.164;13.572;2022-11-21T03:41:52;26.80;;;14.00;;
60610;SDS011;46439;51.164;13.572;2022-11-21T03:44:21;22.20;;;11.80;;
60610;SDS011;46439;51.164;13.572;2022-11-21T03:46:50;22.90;;;11.40;;
60610;SDS011;46439;51.164;13.572;2022-11-21T03:49:18;24.80;;;11.60;;
60610;SDS011;46439;51.164;13.572;2022-11-21T03:51:47;23.20;;;11.50;;
60610;SDS011;46439;51.164;13.572;2022-11-21T03:54:15;21.70;;;10.40;;
60610;SDS011;46439;51.164;13.572;2022-11-21T03:56:44;21.00;;;10.20;;
60610;SDS011;46439;51.164;13.572;2022-11-21T03:59:12;19.20;;;10.40;;
60610;SDS011;46439;51.164;13.572;2022-11-21T04:01:40;17.20;;;8.90;;
60610;SDS011;46439;51.164;13.572;2022-11-21T04:04:09;20.20;;;9.10;;
60610;SDS011;46439;51.164;13.572;2022-11-21T04:06:37;16.90;;;8.90;;
60610;SDS011;46439;51.164;13.572;2022-11-21T04:09:06;17.30;;;9.10;;
60610;SDS011;46439;51.164;13.572;2022-11-21T04:11:34;17.30;;;9.10;;
60610;SDS011;46439;51.164;13.572;2022-11-21T04:14:03;17.80;;;8.10;;
60610;SDS011;46439;51.164;13.572;2022-11-21T04:16:31;15.10;;;8.10;;
60610;SDS011;46439;51.164;13.572;2022-11-21T04:19:00;16.60;;;8.20;;
60610;SDS011;46439;51.164;13.572;2022-11-21T04:21:29;17.30;;;8.00;;
60610;SDS011;46439;51.164;13.572;2022-11-21T04:23:57;16.20;;;7.80;;
60610;SDS011;46439;51.164;13.572;2022-11-21T04:26:26;17.80;;;9.00;;
60610;SDS011;46439;51.164;13.572;2022-11-21T04:28:54;14.90;;;8.50;;
60610;SDS011;46439;51.164;13.572;2022-11-21T04:31:24;19.60;;;10.20;;
60610;SDS011;46439;51.164;13.572;2022-11-21T04:33:53;18.10;;;10.20;;
60610;SDS011;46439;51.164;13.572;2022-11-21T04:36:21;22.50;;;11.70;;
60610;SDS011;46439;51.164;13.572;2022-11-21T04:38:49;23.20;;;12.50;;
60610;SDS011;46439;51.164;13.572;2022-11-21T04:41:18;26.60;;;13.90;;
60610;SDS011;46439;51.164;13.572;2022-11-21T04:43:46;29.50;;;13.60;;
60610;SDS011;46439;51.164;13.572;2022-11-21T04:46:15;32.60;;;17.90;;
60610;SDS011;46439;51.164;13.572;2022-11-21T04:48:43;31.60;;;16.30;;
60610;SDS011;46439;51.164;13.572;2022-11-21T04:51:12;31.60;;;16.70;;
60610;SDS011;46439;51.164;13.572;2022-11-21T04:53:40;34.60;;;17.60;;
60610;SDS011;46439;51.164;13.572;2022-11-21T04:56:08;32.00;;;17.00;;
60610;SDS011;46439;51.164;13.572;2022-11-21T04:58:42;30.00;;;16.50;;
60610;SDS011;46439;51.164;13.572;2022-11-21T05:01:10;31.70;;;17.20;;
60610;SDS011;46439;51.164;13.572;2022-11-21T05:03:39;32.60;;;17.70;;
60610;SDS011;46439;51.164;13.572;2022-11-21T05:06:07;36.70;;;19.50;;
60610;SDS011;46439;51.164;13.572;2022-11-21T05:08:35;33.10;;;17.30;;
60610;SDS011;46439;51.164;13.572;2022-11-21T05:11:04;35.60;;;18.80;;
60610;SDS011;46439;51.164;13.572;2022-11-21T05:13:52;32.20;;;16.90;;
60610;SDS011;46439;51.164;13.572;2022-11-21T05:16:21;33.50;;;16.90;;
60610;SDS011;46439;51.164;13.572;2022-11-21T05:18:50;32.50;;;16.80;;
60610;SDS011;46439;51.164;13.572;2022-11-21T05:21:18;33.30;;;17.50;;
60610;SDS011;46439;51.164;13.572;2022-11-21T05:23:46;33.60;;;17.30;;
60610;SDS011;46439;51.164;13.572;2022-11-21T05:26:15;31.90;;;17.30;;
60610;SDS011;46439;51.164;13.572;2022-11-21T05:28:43;32.50;;;17.10;;
60610;SDS011;46439;51.164;13.572;2022-11-21T05:31:14;32.50;;;17.10;;
60610;SDS011;46439;51.164;13.572;2022-11-21T05:33:42;37.00;;;19.80;;
60610;SDS011;46439;51.164;13.572;2022-11-21T05:36:11;34.60;;;19.30;;
60610;SDS011;46439;51.164;13.572;2022-11-21T05:38:39;33.10;;;18.80;;
60610;SDS011;46439;51.164;13.572;2022-11-21T05:41:08;35.40;;;18.90;;
60610;SDS011;46439;51.164;13.572;2022-11-21T05:43:36;34.20;;;18.50;;
60610;SDS011;46439;51.164;13.572;2022-11-21T05:46:11;43.20;;;23.20;;
60610;SDS011;46439;51.164;13.572;2022-11-21T05:48:41;45.70;;;25.80;;
60610;SDS011;46439;51.164;13.572;2022-11-21T05:51:09;44.70;;;25.00;;
60610;SDS011;46439;51.164;13.572;2022-11-21T05:53:38;37.20;;;18.80;;
60610;SDS011;46439;51.164;13.572;2022-11-21T05:56:08;36.20;;;17.10;;
60610;SDS011;46439;51.164;13.572;2022-11-21T05:58:37;36.40;;;17.90;;
60610;SDS011;46439;51.164;13.572;2022-11-21T06:01:06;33.20;;;18.80;;
60610;SDS011;46439;51.164;13.572;2022-11-21T06:03:37;37.50;;;18.20;;
60610;SDS011;46439;51.164;13.572;2022-11-21T06:06:07;40.70;;;19.30;;
60610;SDS011;46439;51.164;13.572;2022-11-21T06:08:37;39.70;;;18.70;;
60610;SDS011;46439;51.164;13.572;2022-11-21T06:11:08;38.50;;;19.20;;
60610;SDS011;46439;51.164;13.572;2022-11-21T06:13:38;37.40;;;19.40;;
60610;SDS011;46439;51.164;13.572;2022-11-21T06:16:08;38.50;;;20.00;;
60610;SDS011;46439;51.164;13.572;2022-11-21T06:18:39;38.50;;;19.20;;
60610;SDS011;46439;51.164;13.572;2022-11-21T06:21:11;35.00;;;17.90;;
60610;SDS011;46439;51.164;13.572;2022-11-21T06:23:40;35.20;;;18.20;;
60610;SDS011;46439;51.164;13.572;2022-11-21T06:26:12;36.30;;;19.40;;
60610;SDS011;46439;51.164;13.572;2022-11-21T06:28:43;42.60;;;19.90;;
60610;SDS011;46439;51.164;13.572;2022-11-21T06:31:12;35.50;;;19.10;;
60610;SDS011;46439;51.164;13.572;2022-11-21T06:33:42;39.40;;;20.20;;
60610;SDS011;46439;51.164;13.572;2022-11-21T06:36:11;40.30;;;22.10;;
60610;SDS011;46439;51.164;13.572;2022-11-21T06:38:41;41.10;;;21.70;;
60610;SDS011;46439;51.164;13.572;2022-11-21T06:41:11;44.20;;;21.60;;
60610;SDS011;46439;51.164;13.572;2022-11-21T06:43:41;44.40;;;21.10;;
60610;SDS011;46439;51.164;13.572;2022-11-21T06:46:10;35.80;;;19.00;;
60610;SDS011;46439;51.164;13.572;2022-11-21T06:48:40;31.90;;;16.80;;
60610;SDS011;46439;51.164;13.572;2022-11-21T06:51:10;28.60;;;15.70;;
60610;SDS011;46439;51.164;13.572;2022-11-21T06:53:42;27.50;;;15.40;;
60610;SDS011;46439;51.164;13.572;2022-11-21T06:56:11;29.20;;;16.00;;
60610;SDS011;46439;51.164;13.572;2022-11-21T06:58:40;29.70;;;16.70;;
60610;SDS011;46439;51.164;13.572;2022-11-21T07:01:08;33.70;;;16.10;;
60610;SDS011;46439;51.164;13.572;2022-11-21T07:03:37;30.90;;;17.30;;
60610;SDS011;46439;51.164;13.572;2022-11-21T07:06:06;27.30;;;15.10;;
60610;SDS011;46439;51.164;13.572;2022-11-21T07:08:34;28.70;;;16.70;;
60610;SDS011;46439;51.164;13.572;2022-11-21T07:11:04;29.90;;;16.90;;
60610;SDS011;46439;51.164;13.572;2022-11-21T07:13:34;28.20;;;15.70;;
60610;SDS011;46439;51.164;13.572;2022-11-21T07:16:03;24.80;;;14.80;;
60610;SDS011;46439;51.164;13.572;2022-11-21T07:18:34;31.30;;;16.60;;
60610;SDS011;46439;51.164;13.572;2022-11-21T07:21:03;27.20;;;14.20;;
60610;SDS011;46439;51.164;13.572;2022-11-21T07:23:33;25.70;;;14.40;;
60610;SDS011;46439;51.164;13.572;2022-11-21T07:26:02;25.60;;;14.90;;
60610;SDS011;46439;51.164;13.572;2022-11-21T07:28:33;28.70;;;15.60;;
60610;SDS011;46439;51.164;13.572;2022-11-21T07:31:02;29.60;;;14.90;;
60610;SDS011;46439;51.164;13.572;2022-11-21T07:33:30;32.80;;;16.90;;
60610;SDS011;46439;51.164;13.572;2022-11-21T07:35:58;29.10;;;15.70;;
60610;SDS011;46439;51.164;13.572;2022-11-21T07:38:27;29.40;;;15.90;;
60610;SDS011;46439;51.164;13.572;2022-11-21T07:40:56;28.20;;;16.30;;
60610;SDS011;46439;51.164;13.572;2022-11-21T07:43:24;28.40;;;15.70;;
60610;SDS011;46439;51.164;13.572;2022-11-21T07:45:53;29.90;;;16.90;;
60610;SDS011;46439;51.164;13.572;2022-11-21T07:48:21;26.60;;;16.10;;
60610;SDS011;46439;51.164;13.572;2022-11-21T07:50:50;29.20;;;16.10;;
60610;SDS011;46439;51.164;13.572;2022-11-21T07:53:19;28.50;;;15.90;;
60610;SDS011;46439;51.164;13.572;2022-11-21T07:55:47;25.00;;;14.10;;
60610;SDS011;46439;51.164;13.572;2022-11-21T07:58:16;28.60;;;14.20;;
60610;SDS011;46439;51.164;13.572;2022-11-21T08:00:44;27.60;;;14.70;;
60610;SDS011;46439;51.164;13.572;2022-11-21T08:03:13;22.30;;;13.10;;
60610;SDS011;46439;51.164;13.572;2022-11-21T08:05:41;22.60;;;13.50;;
60610;SDS011;46439;51.164;13.572;2022-11-21T08:08:11;27.70;;;14.00;;
60610;SDS011;46439;51.164;13.572;2022-11-21T08:10:40;23.10;;;12.90;;
60610;SDS011;46439;51.164;13.572;2022-11-21T08:13:10;31.00;;;15.90;;
60610;SDS011;46439;51.164;13.572;2022-11-21T08:15:39;27.30;;;14.90;;
60610;SDS011;46439;51.164;13.572;2022-11-21T08:18:08;28.10;;;14.00;;
60610;SDS011;46439;51.164;13.572;2022-11-21T08:20:38;30.80;;;16.30;;
60610;SDS011;46439;51.164;13.572;2022-11-21T08:23:06;26.80;;;13.60;;
60610;SDS011;46439;51.164;13.572;2022-11-21T08:25:37;24.80;;;13.40;;
60610;SDS011;46439;51.164;13.572;2022-11-21T08:28:07;23.00;;;13.10;;
60610;SDS011;46439;51.164;13.572;2022-11-21T08:30:37;25.00;;;13.80;;
60610;SDS011;46439;51.164;13.572;2022-11-21T08:33:06;20.10;;;11.80;;
60610;SDS011;46439;51.164;13.572;2022-11-21T08:35:35;25.60;;;13.90;;
60610;SDS011;46439;51.164;13.572;2022-11-21T08:38:04;23.60;;;13.40;;
60610;SDS011;46439;51.164;13.572;2022-11-21T08:40:34;23.40;;;14.30;;
60610;SDS011;46439;51.164;13.572;2022-11-21T08:43:03;26.40;;;15.00;;
60610;SDS011;46439;51.164;13.572;2022-11-21T08:45:34;24.60;;;14.60;;
60610;SDS011;46439;51.164;13.572;2022-11-21T08:48:07;26.20;;;15.20;;
60610;SDS011;46439;51.164;13.572;2022-11-21T08:50:37;26.30;;;14.60;;
60610;SDS011;46439;51.164;13.572;2022-11-21T08:53:05;27.20;;;15.20;;
60610;SDS011;46439;51.164;13.572;2022-11-21T08:55:34;27.90;;;14.10;;
60610;SDS011;46439;51.164;13.572;2022-11-21T08:58:02;25.70;;;14.90;;
60610;SDS011;46439;51.164;13.572;2022-11-21T09:00:30;26.30;;;15.40;;
60610;SDS011;46439;51.164;13.572;2022-11-21T09:02:59;27.80;;;15.10;;
60610;SDS011;46439;51.164;13.572;2022-11-21T09:05:31;29.80;;;16.00;;
60610;SDS011;46439;51.164;13.572;2022-11-21T09:08:00;28.20;;;16.10;;
60610;SDS011;46439;51.164;13.572;2022-11-21T09:10:29;33.40;;;17.60;;
60610;SDS011;46439;51.164;13.572;2022-11-21T09:12:58;28.90;;;16.40;;
60610;SDS011;46439;51.164;13.572;2022-11-21T09:15:26;30.50;;;16.60;;
60610;SDS011;46439;51.164;13.572;2022-11-21T09:18:13;32.00;;;16.00;;
60610;SDS011;46439;51.164;13.572;2022-11-21T09:20:42;32.40;;;16.30;;
60610;SDS011;46439;51.164;13.572;2022-11-21T09:23:11;30.70;;;16.30;;
60610;SDS011;46439;51.164;13.572;2022-11-21T09:25:41;27.80;;;15.40;;
60610;SDS011;46439;51.164;13.572;2022-11-21T09:28:10;28.80;;;17.00;;
60610;SDS011;46439;51.164;13.572;2022-11-21T09:30:40;28.90;;;16.20;;
60610;SDS011;46439;51.164;13.572;2022-11-21T09:33:10;27.90;;;15.20;;
60610;SDS011;46439;51.164;13.572;2022-11-21T09:35:40;26.20;;;14.40;;
60610;SDS011;46439;51.164;13.572;2022-11-21T09:38:08;26.40;;;15.10;;
60610;SDS011;46439;51.164;13.572;2022-11-21T09:40:38;27.40;;;15.90;;
60610;SDS011;46439;51.164;13.572;2022-11-21T09:46:11;25.90;;;14.80;;
60610;SDS011;46439;51.164;13.572;2022-11-21T09:48:45;26.40;;;14.90;;
60610;SDS011;46439;51.164;13.572;2022-11-21T09:51:18;25.90;;;14.60;;
60610;SDS011;46439;51.164;13.572;2022-11-21T09:53:50;26.80;;;14.60;;
60610;SDS011;46439;51.164;13.572;2022-11-21T09:56:23;27.20;;;13.80;;
60610;SDS011;46439;51.164;13.572;2022-11-21T09:59:01;24.00;;;13.40;;
60610;SDS011;46439;51.164;13.572;2022-11-21T10:01:38;23.90;;;13.90;;
60610;SDS011;46439;51.164;13.572;2022-11-21T10:04:07;25.20;;;15.10;;
60610;SDS011;46439;51.164;13.572;2022-11-21T10:06:37;32.80;;;19.30;;
60610;SDS011;46439;51.164;13.572;2022-11-21T10:09:17;30.30;;;17.60;;
60610;SDS011;46439;51.164;13.572;2022-11-21T10:12:01;27.00;;;15.10;;
60610;SDS011;46439;51.164;13.572;2022-11-21T10:14:57;19.60;;;11.30;;
60610;SDS011;46439;51.164;13.572;2022-11-21T10:17:38;18.80;;;11.40;;
60610;SDS011;46439;51.164;13.572;2022-11-21T10:20:30;18.60;;;11.80;;
60610;SDS011;46439;51.164;13.572;2022-11-21T10:23:11;19.70;;;10.90;;
60610;SDS011;46439;51.164;13.572;2022-11-21T10:26:11;18.30;;;10.00;;
60610;SDS011;46439;51.164;13.572;2022-11-21T10:28:44;18.50;;;10.30;;
60610;SDS011;46439;51.164;13.572;2022-11-21T10:31:17;17.30;;;10.20;;
60610;SDS011;46439;51.164;13.572;2022-11-21T10:33:46;15.50;;;9.60;;
60610;SDS011;46439;51.164;13.572;2022-11-21T10:36:20;16.70;;;8.40;;
60610;SDS011;46439;51.164;13.572;2022-11-21T10:38:55;16.60;;;9.50;;
60610;SDS011;46439;51.164;13.572;2022-11-21T10:41:30;17.60;;;11.30;;
60610;SDS011;46439;51.164;13.572;2022-11-21T10:44:12;18.80;;;10.10;;
60610;SDS011;46439;51.164;13.572;2022-11-21T10:47:13;19.50;;;10.70;;
60610;SDS011;46439;51.164;13.572;2022-11-21T10:49:54;18.00;;;10.70;;
60610;SDS011;46439;51.164;13.572;2022-11-21T10:52:31;17.60;;;10.30;;
60610;SDS011;46439;51.164;13.572;2022-11-21T10:55:07;19.50;;;10.60;;
60610;SDS011;46439;51.164;13.572;2022-11-21T10:57:42;23.10;;;12.00;;
60610;SDS011;46439;51.164;13.572;2022-11-21T11:00:21;18.50;;;10.50;;
60610;SDS011;46439;51.164;13.572;2022-11-21T11:03:05;18.90;;;11.00;;
60610;SDS011;46439;51.164;13.572;2022-11-21T11:05:43;19.20;;;10.70;;
60610;SDS011;46439;51.164;13.572;2022-11-21T11:08:25;19.40;;;10.90;;
60610;SDS011;46439;51.164;13.572;2022-11-21T11:11:05;21.10;;;12.70;;
60610;SDS011;46439;51.164;13.572;2022-11-21T11:13:50;23.60;;;12.40;;
60610;SDS011;46439;51.164;13.572;2022-11-21T11:16:23;20.60;;;12.30;;
60610;SDS011;46439;51.164;13.572;2022-11-21T11:18:56;21.00;;;12.10;;
60610;SDS011;46439;51.164;13.572;2022-11-21T11:21:26;22.20;;;12.40;;
60610;SDS011;46439;51.164;13.572;2022-11-21T11:24:06;20.60;;;11.00;;
60610;SDS011;46439;51.164;13.572;2022-11-21T11:26:51;19.50;;;11.20;;
60610;SDS011;46439;51.164;13.572;2022-11-21T11:29:24;19.90;;;11.30;;
60610;SDS011;46439;51.164;13.572;2022-11-21T11:31:56;19.00;;;11.10;;
60610;SDS011;46439;51.164;13.572;2022-11-21T11:34:34;21.40;;;11.90;;
60610;SDS011;46439;51.164;13.572;2022-11-21T11:37:10;22.00;;;12.10;;
60610;SDS011;46439;51.164;13.572;2022-11-21T11:39:48;19.50;;;10.80;;
60610;SDS011;46439;51.164;13.572;2022-11-21T11:48:50;19.10;;;10.60;;
60610;SDS011;46439;51.164;13.572;2022-11-21T11:51:28;18.60;;;11.10;;
60610;SDS011;46439;51.164;13.572;2022-11-21T11:54:13;19.60;;;11.70;;
60610;SDS011;46439;51.164;13.572;2022-11-21T11:56:44;20.70;;;11.60;;
60610;SDS011;46439;51.164;13.572;2022-11-21T11:59:14;17.30;;;10.10;;
60610;SDS011;46439;51.164;13.572;2022-11-21T12:01:47;18.30;;;10.50;;
60610;SDS011;46439;51.164;13.572;2022-11-21T12:04:21;20.20;;;11.90;;
60610;SDS011;46439;51.164;13.572;2022-11-21T12:06:55;21.00;;;12.20;;
60610;SDS011;46439;51.164;13.572;2022-11-21T12:09:29;22.40;;;12.50;;
60610;SDS011;46439;51.164;13.572;2022-11-21T12:12:04;18.20;;;11.10;;
60610;SDS011;46439;51.164;13.572;2022-11-21T12:14:45;20.80;;;11.10;;
60610;SDS011;46439;51.164;13.572;2022-11-21T12:17:42;20.00;;;11.30;;
60610;SDS011;46439;51.164;13.572;2022-11-21T12:20:18;20.40;;;12.10;;
60610;SDS011;46439;51.164;13.572;2022-11-21T12:22:51;20.50;;;11.90;;
60610;SDS011;46439;51.164;13.572;2022-11-21T12:25:20;19.10;;;11.80;;
60610;SDS011;46439;51.164;13.572;2022-11-21T12:27:54;21.20;;;12.20;;
60610;SDS011;46439;51.164;13.572;2022-11-21T12:30:28;21.20;;;11.90;;
60610;SDS011;46439;51.164;13.572;2022-11-21T12:33:11;17.80;;;10.90;;
60610;SDS011;46439;51.164;13.572;2022-11-21T12:39:08;18.00;;;10.90;;
60610;SDS011;46439;51.164;13.572;2022-11-21T12:41:59;19.20;;;10.90;;
60610;SDS011;46439;51.164;13.572;2022-11-21T12:44:57;17.50;;;10.20;;
60610;SDS011;46439;51.164;13.572;2022-11-21T12:47:52;17.20;;;10.20;;
60610;SDS011;46439;51.164;13.572;2022-11-21T12:50:52;16.60;;;10.50;;
60610;SDS011;46439;51.164;13.572;2022-11-21T12:53:54;19.40;;;11.40;;
60610;SDS011;46439;51.164;13.572;2022-11-21T12:56:48;21.50;;;10.90;;
60610;SDS011;46439;51.164;13.572;2022-11-21T12:59:23;17.30;;;10.80;;
60610;SDS011;46439;51.164;13.572;2022-11-21T13:01:54;17.90;;;10.80;;
60610;SDS011;46439;51.164;13.572;2022-11-21T13:04:33;21.80;;;11.40;;
60610;SDS011;46439;51.164;13.572;2022-11-21T13:07:06;18.60;;;11.20;;
60610;SDS011;46439;51.164;13.572;2022-11-21T13:09:35;17.60;;;11.00;;
60610;SDS011;46439;51.164;13.572;2022-11-21T13:12:08;18.70;;;11.10;;
60610;SDS011;46439;51.164;13.572;2022-11-21T13:14:45;16.90;;;10.80;;
60610;SDS011;46439;51.164;13.572;2022-11-21T13:17:21;18.70;;;10.60;;
60610;SDS011;46439;51.164;13.572;2022-11-21T13:20:04;17.80;;;10.40;;
60610;SDS011;46439;51.164;13.572;2022-11-21T13:22:51;18.40;;;10.80;;
60610;SDS011;46439;51.164;13.572;2022-11-21T13:25:40;17.10;;;10.70;;
60610;SDS011;46439;51.164;13.572;2022-11-21T13:33:56;18.20;;;10.20;;
60610;SDS011;46439;51.164;13.572;2022-11-21T13:36:35;18.30;;;10.80;;
60610;SDS011;46439;51.164;13.572;2022-11-21T13:42:04;20.20;;;11.10;;
60610;SDS011;46439;51.164;13.572;2022-11-21T13:44:53;21.30;;;12.70;;
60610;SDS011;46439;51.164;13.572;2022-11-21T13:47:33;20.30;;;11.80;;
60610;SDS011;46439;51.164;13.572;2022-11-21T13:50:24;17.30;;;10.30;;
60610;SDS011;46439;51.164;13.572;2022-11-21T13:53:15;18.50;;;10.80;;
60610;SDS011;46439;51.164;13.572;2022-11-21T13:55:56;21.40;;;11.10;;
60610;SDS011;46439;51.164;13.572;2022-11-21T13:58:36;19.90;;;12.60;;
60610;SDS011;46439;51.164;13.572;2022-11-21T14:07:25;22.30;;;13.10;;
60610;SDS011;46439;51.164;13.572;2022-11-21T14:09:56;30.10;;;14.80;;
60610;SDS011;46439;51.164;13.572;2022-11-21T14:12:29;35.90;;;17.10;;
60610;SDS011;46439;51.164;13.572;2022-11-21T14:15:13;41.00;;;17.40;;
60610;SDS011;46439;51.164;13.572;2022-11-21T14:17:50;33.10;;;17.30;;
60610;SDS011;46439;51.164;13.572;2022-11-21T14:20:22;28.90;;;15.40;;
60610;SDS011;46439;51.164;13.572;2022-11-21T14:22:57;26.50;;;13.30;;
60610;SDS011;46439;51.164;13.572;2022-11-21T14:25:41;23.10;;;14.10;;
60610;SDS011;46439;51.164;13.572;2022-11-21T14:28:15;24.40;;;15.40;;
60610;SDS011;46439;51.164;13.572;2022-11-21T14:30:50;20.70;;;13.60;;
60610;SDS011;46439;51.164;13.572;2022-11-21T14:33:24;22.50;;;13.70;;
60610;SDS011;46439;51.164;13.572;2022-11-21T14:35:56;20.50;;;12.60;;
60610;SDS011;46439;51.164;13.572;2022-11-21T14:38:27;22.60;;;13.50;;
60610;SDS011;46439;51.164;13.572;2022-11-21T14:44:02;25.90;;;13.20;;
60610;SDS011;46439;51.164;13.572;2022-11-21T14:46:41;21.30;;;12.70;;
60610;SDS011;46439;51.164;13.572;2022-11-21T14:52:03;21.80;;;13.40;;
60610;SDS011;46439;51.164;13.572;2022-11-21T14:54:44;21.60;;;12.80;;
60610;SDS011;46439;51.164;13.572;2022-11-21T14:57:18;21.40;;;13.10;;
60610;SDS011;46439;51.164;13.572;2022-11-21T14:59:49;22.90;;;13.70;;
60610;SDS011;46439;51.164;13.572;2022-11-21T15:02:20;21.50;;;12.90;;
60610;SDS011;46439;51.164;13.572;2022-11-21T15:04:50;21.60;;;12.40;;
60610;SDS011;46439;51.164;13.572;2022-11-21T15:07:22;22.30;;;13.50;;
60610;SDS011;46439;51.164;13.572;2022-11-21T15:09:51;20.80;;;11.90;;
60610;SDS011;46439;51.164;13.572;2022-11-21T15:12:22;24.40;;;14.00;;